Time;durP1;ratioP1;P1;durP2;ratioP2;P2;SDS_P1;SDS_P2;PMS_P1;PMS_P2;Temp;Humidity;BMP_temperature;BMP_pressure;BME280_temperature;BME280_humidity;BME280_pressure;Samples;Min_cycle;Max_cycle;Signal;HPM_P1;HPM_P2
2023/11/28 00:01:52;;;;;;;3.50;3.00;;;;;;;;;;5046786;28;20207;-81
2023/11/28 00:04:21;;;;;;;3.77;3.40;;;;;;;;;;5037778;28;20218;-83
2023/11/28 00:06:47;;;;;;;4.63;3.13;;;;;;;;;;5045044;28;20203;-82
2023/11/28 00:09:14;;;;;;;3.20;2.90;;;;;;;;;;5032364;28;20213;-82
2023/11/28 00:11:41;;;;;;;5.73;3.73;;;;;;;;;;5031745;28;20209;-82
2023/11/28 00:14:08;;;;;;;2.83;2.53;;;;;;;;;;5032055;28;20237;-81
2023/11/28 00:16:35;;;;;;;3.87;3.47;;;;;;;;;;5051115;28;20204;-82
2023/11/28 00:19:02;;;;;;;12.27;7.63;;;;;;;;;;5038602;28;20210;-82
2023/11/28 00:21:31;;;;;;;28.40;14.40;;;;;;;;;;5051065;28;20664;-81
2023/11/28 00:23:58;;;;;;;12.10;9.07;;;;;;;;;;5051409;28;20214;-84
2023/11/28 00:26:25;;;;;;;12.47;7.73;;;;;;;;;;5025867;28;20213;-81
2023/11/28 00:28:52;;;;;;;7.13;4.63;;;;;;;;;;5037652;28;20214;-82
2023/11/28 00:31:20;;;;;;;5.53;4.90;;;;;;;;;;5051080;28;20205;-81
2023/11/28 00:33:47;;;;;;;7.87;5.27;;;;;;;;;;5044826;28;20238;-81
2023/11/28 00:36:16;;;;;;;6.23;5.10;;;;;;;;;;5023381;28;20289;-81
2023/11/28 00:38:44;;;;;;;5.87;4.23;;;;;;;;;;5051058;28;20299;-81
2023/11/28 00:41:12;;;;;;;6.20;4.50;;;;;;;;;;5051253;28;20209;-81
2023/11/28 00:43:39;;;;;;;48.83;26.63;;;;;;;;;;5050561;28;20209;-81
2023/11/28 00:46:06;;;;;;;19.67;13.20;;;;;;;;;;5051101;28;20221;-81
2023/11/28 00:48:33;;;;;;;18.47;11.73;;;;;;;;;;5037366;28;20206;-81
2023/11/28 00:51:00;;;;;;;27.03;17.37;;;;;;;;;;5043102;28;20218;-80
2023/11/28 00:53:27;;;;;;;36.13;27.27;;;;;;;;;;5046172;28;20221;-81
2023/11/28 00:55:55;;;;;;;68.00;48.80;;;;;;;;;;5050985;28;20275;-81
2023/11/28 00:58:22;;;;;;;9.27;7.00;;;;;;;;;;5049219;28;20213;-79
2023/11/28 01:00:49;;;;;;;14.80;11.57;;;;;;;;;;5030984;28;20209;-80
2023/11/28 01:03:15;;;;;;;12.57;10.07;;;;;;;;;;5046145;28;20612;-81
2023/11/28 01:05:42;;;;;;;12.43;10.27;;;;;;;;;;5051019;28;20209;-82
2023/11/28 01:08:09;;;;;;;10.77;5.30;;;;;;;;;;5048054;28;20202;-81
2023/11/28 01:10:36;;;;;;;4.33;3.93;;;;;;;;;;5030747;28;20242;-81
2023/11/28 01:13:04;;;;;;;4.37;3.97;;;;;;;;;;5030812;28;20230;-82
2023/11/28 01:15:33;;;;;;;5.23;4.70;;;;;;;;;;5030702;28;20810;-81
2023/11/28 01:18:00;;;;;;;4.80;4.33;;;;;;;;;;5048514;28;20597;-81
2023/11/28 01:20:27;;;;;;;4.17;3.73;;;;;;;;;;5054933;28;20205;-81
2023/11/28 01:22:54;;;;;;;5.93;4.50;;;;;;;;;;5050971;28;20265;-80
2023/11/28 01:25:21;;;;;;;7.30;4.77;;;;;;;;;;5045460;28;20672;-81
2023/11/28 01:27:47;;;;;;;16.63;9.43;;;;;;;;;;5037711;28;20577;-80
2023/11/28 01:30:16;;;;;;;4.57;4.17;;;;;;;;;;5045514;28;20209;-81
2023/11/28 01:32:44;;;;;;;4.90;4.03;;;;;;;;;;5054848;28;20209;-80
2023/11/28 01:35:11;;;;;;;7.37;4.80;;;;;;;;;;5054847;28;20264;-80
2023/11/28 01:37:38;;;;;;;3.37;3.07;;;;;;;;;;5041339;28;20233;-82
2023/11/28 01:40:06;;;;;;;4.30;3.67;;;;;;;;;;5042426;28;20285;-82
2023/11/28 01:42:33;;;;;;;4.70;3.80;;;;;;;;;;5032239;28;20626;-81
2023/11/28 01:45:00;;;;;;;4.97;3.30;;;;;;;;;;5034961;28;20198;-80
2023/11/28 01:47:28;;;;;;;4.70;3.87;;;;;;;;;;5039492;28;20688;-80
2023/11/28 01:49:55;;;;;;;4.37;3.40;;;;;;;;;;5054044;28;20202;-80
2023/11/28 01:52:22;;;;;;;3.60;3.30;;;;;;;;;;5048198;28;20198;-80
2023/11/28 01:54:49;;;;;;;3.83;3.43;;;;;;;;;;5033874;28;20667;-79
2023/11/28 01:57:16;;;;;;;3.77;3.30;;;;;;;;;;5047215;28;20689;-79
2023/11/28 01:59:44;;;;;;;3.67;3.37;;;;;;;;;;5034021;28;20203;-80
2023/11/28 02:02:10;;;;;;;6.77;4.43;;;;;;;;;;5053509;28;20213;-79
2023/11/28 02:04:39;;;;;;;8.17;5.20;;;;;;;;;;5040509;28;20647;-79
2023/11/28 02:07:06;;;;;;;4.67;3.90;;;;;;;;;;5053384;28;20206;-79
2023/11/28 02:09:32;;;;;;;4.27;3.53;;;;;;;;;;5053503;28;20672;-79
2023/11/28 02:11:59;;;;;;;2.97;2.70;;;;;;;;;;5053597;28;20202;-80
2023/11/28 02:14:26;;;;;;;11.00;6.60;;;;;;;;;;5053326;28;20680;-79
2023/11/28 02:16:53;;;;;;;6.37;5.03;;;;;;;;;;5053958;28;20213;-79
2023/11/28 02:19:20;;;;;;;32.90;14.53;;;;;;;;;;5051581;28;20202;-79
2023/11/28 02:21:48;;;;;;;12.60;7.50;;;;;;;;;;5041911;28;20225;-79
2023/11/28 02:24:16;;;;;;;8.40;4.33;;;;;;;;;;5053104;28;20212;-79
2023/11/28 02:26:44;;;;;;;4.77;4.23;;;;;;;;;;5053474;28;20275;-79
2023/11/28 02:29:11;;;;;;;3.73;3.23;;;;;;;;;;5053123;28;20201;-79
2023/11/28 02:31:37;;;;;;;3.93;3.47;;;;;;;;;;5053022;28;20681;-79
2023/11/28 02:34:04;;;;;;;10.53;6.47;;;;;;;;;;5039924;28;20628;-83
2023/11/28 02:36:34;;;;;;;13.97;9.23;;;;;;;;;;5053742;28;20206;-82
2023/11/28 02:39:01;;;;;;;12.87;7.17;;;;;;;;;;5053081;28;20194;-82
2023/11/28 02:41:28;;;;;;;7.73;6.37;;;;;;;;;;5052962;28;20206;-82
2023/11/28 02:43:56;;;;;;;6.53;5.57;;;;;;;;;;5053314;28;20213;-81
2023/11/28 02:46:23;;;;;;;6.40;5.27;;;;;;;;;;5053444;28;20221;-82
2023/11/28 02:48:49;;;;;;;4.93;4.20;;;;;;;;;;5052909;28;20207;-81
2023/11/28 02:51:19;;;;;;;5.47;3.83;;;;;;;;;;5053111;28;20206;-79
2023/11/28 02:53:46;;;;;;;5.87;4.07;;;;;;;;;;5052223;28;20320;-78
2023/11/28 02:56:13;;;;;;;5.37;4.43;;;;;;;;;;5052861;28;20209;-79
2023/11/28 02:58:39;;;;;;;6.07;4.70;;;;;;;;;;5052203;28;20684;-79
2023/11/28 03:01:08;;;;;;;5.40;4.33;;;;;;;;;;5041306;28;20214;-79
2023/11/28 03:03:35;;;;;;;4.70;4.17;;;;;;;;;;5045926;28;20209;-79
2023/11/28 03:06:02;;;;;;;4.40;3.60;;;;;;;;;;5045042;28;20563;-82
2023/11/28 03:08:29;;;;;;;4.83;4.37;;;;;;;;;;5052670;28;20198;-79
2023/11/28 03:10:55;;;;;;;6.17;5.57;;;;;;;;;;5052755;28;20371;-79
2023/11/28 03:13:22;;;;;;;7.20;5.70;;;;;;;;;;5052149;28;20221;-80
2023/11/28 03:15:49;;;;;;;9.33;8.23;;;;;;;;;;5052382;28;20209;-80
2023/11/28 03:18:17;;;;;;;9.33;6.97;;;;;;;;;;5038851;28;20197;-81
2023/11/28 03:20:44;;;;;;;12.10;7.27;;;;;;;;;;5051428;28;20655;-81
2023/11/28 03:23:11;;;;;;;3.30;3.00;;;;;;;;;;5025991;28;20216;-81
2023/11/28 03:25:38;;;;;;;16.97;8.40;;;;;;;;;;5051713;28;20202;-81
2023/11/28 03:28:05;;;;;;;149.97;53.97;;;;;;;;;;5033110;28;20211;-81
2023/11/28 03:30:32;;;;;;;162.93;60.00;;;;;;;;;;5032431;28;20207;-81
2023/11/28 03:32:59;;;;;;;32.10;17.13;;;;;;;;;;5045554;28;20700;-81
2023/11/28 03:35:28;;;;;;;6.57;4.73;;;;;;;;;;5045392;28;20237;-80
2023/11/28 03:37:57;;;;;;;3.97;3.67;;;;;;;;;;5052492;28;20316;-80
2023/11/28 03:40:23;;;;;;;5.33;4.67;;;;;;;;;;5051632;28;20700;-80
2023/11/28 03:42:50;;;;;;;6.13;5.17;;;;;;;;;;5051969;28;20205;-80
2023/11/28 03:45:17;;;;;;;5.37;4.63;;;;;;;;;;5051607;28;20206;-81
2023/11/28 03:47:44;;;;;;;4.77;4.27;;;;;;;;;;5043643;28;20202;-80
2023/11/28 03:50:11;;;;;;;5.63;4.73;;;;;;;;;;5044804;28;20216;-81
2023/11/28 03:52:40;;;;;;;4.73;4.33;;;;;;;;;;5040715;28;20205;-81
2023/11/28 03:55:09;;;;;;;5.10;4.10;;;;;;;;;;5051754;28;20238;-81
2023/11/28 03:57:35;;;;;;;4.63;3.43;;;;;;;;;;5052249;28;20210;-77
2023/11/28 04:00:03;;;;;;;11.00;7.23;;;;;;;;;;5034628;28;20203;-76
2023/11/28 04:02:32;;;;;;;8.80;6.40;;;;;;;;;;5033327;28;20206;-76
2023/11/28 04:04:59;;;;;;;3.60;3.17;;;;;;;;;;5034439;28;20289;-77
2023/11/28 04:07:26;;;;;;;14.23;10.83;;;;;;;;;;5033560;28;20202;-77
2023/11/28 04:09:54;;;;;;;20.17;14.37;;;;;;;;;;5042537;28;20206;-76
2023/11/28 04:12:21;;;;;;;10.87;8.37;;;;;;;;;;5050334;28;20208;-76
2023/11/28 04:14:48;;;;;;;12.70;10.73;;;;;;;;;;5041156;28;20230;-78
2023/11/28 04:17:14;;;;;;;9.17;8.27;;;;;;;;;;5029968;28;20259;-77
2023/11/28 04:19:41;;;;;;;5.80;5.07;;;;;;;;;;5041876;28;20203;-77
2023/11/28 04:22:10;;;;;;;5.77;5.20;;;;;;;;;;5050378;28;20209;-76
2023/11/28 04:24:36;;;;;;;7.63;5.97;;;;;;;;;;5046316;28;20202;-76
2023/11/28 04:27:05;;;;;;;9.23;6.43;;;;;;;;;;5049150;28;20599;-77
2023/11/28 04:29:32;;;;;;;13.40;6.80;;;;;;;;;;5039587;28;20199;-77
2023/11/28 04:31:59;;;;;;;8.83;6.67;;;;;;;;;;5044014;28;20205;-77
2023/11/28 04:34:25;;;;;;;7.77;6.83;;;;;;;;;;5049093;28;20222;-76
2023/11/28 04:36:52;;;;;;;8.83;6.83;;;;;;;;;;5050869;28;20230;-77
2023/11/28 04:39:19;;;;;;;6.87;5.73;;;;;;;;;;5050934;28;20198;-77
2023/11/28 04:41:46;;;;;;;5.77;5.17;;;;;;;;;;5050829;28;20206;-77
2023/11/28 04:44:14;;;;;;;10.27;8.33;;;;;;;;;;5049881;28;20213;-77
2023/11/28 04:46:41;;;;;;;14.10;10.87;;;;;;;;;;5051223;28;20202;-77
2023/11/28 04:49:11;;;;;;;9.80;8.77;;;;;;;;;;5050417;28;20206;-77
2023/11/28 04:51:38;;;;;;;9.03;7.37;;;;;;;;;;5050661;28;20202;-78
2023/11/28 04:54:05;;;;;;;7.50;6.03;;;;;;;;;;5049807;28;20222;-77
2023/11/28 04:56:32;;;;;;;9.17;6.97;;;;;;;;;;5050232;28;20201;-77
2023/11/28 04:58:59;;;;;;;8.80;7.10;;;;;;;;;;5038415;28;20228;-77
2023/11/28 05:01:27;;;;;;;8.80;6.77;;;;;;;;;;5050671;28;20210;-78
2023/11/28 05:03:55;;;;;;;10.60;7.33;;;;;;;;;;5050445;28;20205;-77
2023/11/28 05:06:22;;;;;;;9.13;7.27;;;;;;;;;;5031237;28;20214;-77
2023/11/28 05:08:49;;;;;;;6.93;5.87;;;;;;;;;;5043075;28;20608;-77
2023/11/28 05:11:16;;;;;;;9.87;7.57;;;;;;;;;;5044277;28;20199;-77
2023/11/28 05:13:43;;;;;;;7.70;6.43;;;;;;;;;;5047531;28;20216;-79
2023/11/28 05:16:12;;;;;;;16.80;10.30;;;;;;;;;;5050228;28;20202;-77
2023/11/28 05:18:41;;;;;;;18.63;10.80;;;;;;;;;;5047712;28;20213;-77
2023/11/28 05:21:08;;;;;;;15.27;10.27;;;;;;;;;;5033043;28;20209;-76
2023/11/28 05:23:35;;;;;;;19.43;10.80;;;;;;;;;;5041438;28;20209;-76
2023/11/28 05:26:02;;;;;;;14.20;9.17;;;;;;;;;;5037031;28;20206;-77
2023/11/28 05:28:28;;;;;;;16.67;9.00;;;;;;;;;;5050673;28;20206;-77
2023/11/28 05:30:55;;;;;;;15.53;8.67;;;;;;;;;;5037779;28;20210;-82
2023/11/28 05:33:22;;;;;;;11.73;6.83;;;;;;;;;;5038770;28;20670;-80
2023/11/28 05:35:50;;;;;;;45.33;23.40;;;;;;;;;;5046859;28;20237;-80
2023/11/28 05:38:17;;;;;;;31.07;17.73;;;;;;;;;;5040710;28;20693;-80
2023/11/28 05:40:44;;;;;;;12.93;8.97;;;;;;;;;;5041285;28;20207;-83
2023/11/28 05:43:11;;;;;;;10.53;6.63;;;;;;;;;;5043296;28;20210;-79
2023/11/28 05:45:38;;;;;;;6.87;5.27;;;;;;;;;;5040627;28;20639;-79
2023/11/28 05:48:05;;;;;;;15.23;11.13;;;;;;;;;;5049981;28;20589;-79
2023/11/28 05:50:32;;;;;;;47.10;26.00;;;;;;;;;;5038424;28;20211;-79
2023/11/28 05:53:01;;;;;;;37.93;23.40;;;;;;;;;;5043603;28;20209;-79
2023/11/28 05:55:27;;;;;;;11.83;8.70;;;;;;;;;;5041568;28;20230;-79
2023/11/28 05:57:56;;;;;;;25.70;16.87;;;;;;;;;;5045836;28;20602;-79
2023/11/28 06:00:23;;;;;;;9.53;7.50;;;;;;;;;;5030690;28;20206;-79
2023/11/28 06:02:50;;;;;;;5.23;4.17;;;;;;;;;;5034807;28;20210;-79
2023/11/28 06:05:17;;;;;;;5.03;4.53;;;;;;;;;;5041481;28;20202;-79
2023/11/28 06:07:44;;;;;;;11.17;6.33;;;;;;;;;;5034044;28;20211;-79
2023/11/28 06:10:13;;;;;;;13.97;10.33;;;;;;;;;;5045493;28;20686;-79
2023/11/28 06:12:41;;;;;;;42.13;25.63;;;;;;;;;;5048121;28;20673;-80
2023/11/28 06:15:09;;;;;;;44.67;27.80;;;;;;;;;;5045366;28;20626;-79
2023/11/28 06:17:35;;;;;;;48.93;29.07;;;;;;;;;;5054024;28;20213;-79
2023/11/28 06:20:04;;;;;;;27.83;17.87;;;;;;;;;;5040919;28;20210;-79
2023/11/28 06:22:33;;;;;;;19.03;11.33;;;;;;;;;;5046913;28;20260;-79
2023/11/28 06:25:00;;;;;;;10.13;8.97;;;;;;;;;;5047358;28;20206;-80
2023/11/28 06:27:28;;;;;;;16.63;9.20;;;;;;;;;;5053519;28;20216;-79
2023/11/28 06:29:55;;;;;;;11.37;9.17;;;;;;;;;;5052658;28;20206;-79
2023/11/28 06:32:22;;;;;;;9.23;8.00;;;;;;;;;;5040979;28;20206;-79
2023/11/28 06:34:50;;;;;;;13.10;8.77;;;;;;;;;;5045021;28;20756;-79
2023/11/28 06:37:18;;;;;;;14.03;10.33;;;;;;;;;;5048818;28;20233;-79
2023/11/28 06:39:45;;;;;;;18.47;13.17;;;;;;;;;;5044078;28;20195;-78
2023/11/28 06:42:13;;;;;;;36.37;24.87;;;;;;;;;;5036372;28;20289;-78
2023/11/28 06:44:41;;;;;;;17.63;14.17;;;;;;;;;;5043188;28;20747;-78
2023/11/28 06:47:11;;;;;;;17.50;13.17;;;;;;;;;;5046590;28;20214;-78
2023/11/28 06:49:37;;;;;;;9.77;8.70;;;;;;;;;;5043659;28;20676;-78
2023/11/28 06:52:05;;;;;;;8.87;8.00;;;;;;;;;;5039903;28;20208;-78
2023/11/28 06:54:34;;;;;;;8.97;7.40;;;;;;;;;;5041995;28;20317;-78
2023/11/28 06:57:01;;;;;;;6.90;6.27;;;;;;;;;;5046729;28;20214;-78
2023/11/28 06:59:28;;;;;;;7.23;5.47;;;;;;;;;;5032907;28;20222;-78
2023/11/28 07:01:56;;;;;;;6.77;5.13;;;;;;;;;;5037881;28;20210;-78
2023/11/28 07:04:23;;;;;;;6.90;5.27;;;;;;;;;;5051600;28;20209;-79
2023/11/28 07:06:50;;;;;;;10.60;8.33;;;;;;;;;;5033577;28;20195;-79
2023/11/28 07:09:17;;;;;;;8.50;7.63;;;;;;;;;;5045409;28;20201;-78
2023/11/28 07:11:44;;;;;;;10.97;6.50;;;;;;;;;;5046742;28;20203;-79
2023/11/28 07:14:10;;;;;;;10.17;6.03;;;;;;;;;;5045258;28;20205;-79
2023/11/28 07:16:37;;;;;;;8.80;7.63;;;;;;;;;;5032340;28;20203;-79
2023/11/28 07:19:06;;;;;;;11.83;8.50;;;;;;;;;;5046191;28;20213;-79
2023/11/28 07:21:32;;;;;;;11.17;8.23;;;;;;;;;;5026622;28;20668;-79
2023/11/28 07:23:59;;;;;;;12.57;8.93;;;;;;;;;;5052285;28;20198;-83
2023/11/28 07:26:26;;;;;;;13.20;8.63;;;;;;;;;;5045839;28;20210;-79
2023/11/28 07:28:53;;;;;;;12.03;9.37;;;;;;;;;;5046209;28;20202;-80
2023/11/28 07:31:20;;;;;;;10.87;8.73;;;;;;;;;;5052578;28;20213;-79
2023/11/28 07:33:46;;;;;;;10.97;7.13;;;;;;;;;;5052199;28;20213;-79
2023/11/28 07:36:15;;;;;;;9.80;7.43;;;;;;;;;;5052304;28;20228;-80
2023/11/28 07:38:44;;;;;;;7.90;6.53;;;;;;;;;;5039266;28;20241;-80
2023/11/28 07:41:13;;;;;;;11.53;7.20;;;;;;;;;;5052214;28;20209;-79
2023/11/28 07:43:40;;;;;;;8.37;6.63;;;;;;;;;;5038845;28;20689;-80
2023/11/28 07:46:09;;;;;;;15.33;9.27;;;;;;;;;;5052113;28;20206;-80
2023/11/28 07:48:35;;;;;;;15.53;13.60;;;;;;;;;;5038730;28;20664;-80
2023/11/28 07:51:04;;;;;;;17.20;14.60;;;;;;;;;;5051922;28;20213;-80
2023/11/28 07:53:36;;;;;;;25.50;18.63;;;;;;;;;;5051972;28;20283;-80
2023/11/28 07:56:04;;;;;;;16.30;13.37;;;;;;;;;;5051727;28;20279;-80
2023/11/28 07:58:33;;;;;;;17.23;11.83;;;;;;;;;;5048279;28;20202;-80
2023/11/28 08:01:00;;;;;;;16.50;10.47;;;;;;;;;;5042566;28;20210;-79
2023/11/28 08:03:27;;;;;;;15.67;10.27;;;;;;;;;;5038817;28;20206;-80
2023/11/28 08:05:54;;;;;;;13.40;9.53;;;;;;;;;;5040757;28;20217;-80
2023/11/28 08:08:23;;;;;;;12.30;10.07;;;;;;;;;;5045421;28;20214;-80
2023/11/28 08:10:51;;;;;;;13.87;10.47;;;;;;;;;;5043876;28;20577;-80
2023/11/28 08:13:18;;;;;;;12.77;9.60;;;;;;;;;;5037902;28;20201;-80
2023/11/28 08:15:45;;;;;;;14.10;11.60;;;;;;;;;;5039401;28;20317;-79
2023/11/28 08:18:12;;;;;;;14.43;10.33;;;;;;;;;;5050432;28;20202;-80
2023/11/28 08:20:39;;;;;;;12.93;9.33;;;;;;;;;;5051221;28;20206;-80
2023/11/28 08:23:06;;;;;;;14.03;9.47;;;;;;;;;;5051112;28;20575;-79
2023/11/28 08:25:33;;;;;;;13.37;9.80;;;;;;;;;;5038695;28;20209;-80
2023/11/28 08:28:01;;;;;;;7.87;7.00;;;;;;;;;;5050963;28;20217;-80
2023/11/28 08:30:29;;;;;;;8.07;5.83;;;;;;;;;;5051358;28;20743;-80
2023/11/28 08:32:56;;;;;;;9.33;5.97;;;;;;;;;;5024822;28;20673;-80
2023/11/28 08:35:23;;;;;;;6.33;5.70;;;;;;;;;;5038384;28;20230;-80
2023/11/28 08:37:50;;;;;;;4.77;4.37;;;;;;;;;;5051571;28;20599;-80
2023/11/28 08:40:16;;;;;;;7.20;4.97;;;;;;;;;;5050684;28;20691;-80
2023/11/28 08:42:43;;;;;;;7.17;5.63;;;;;;;;;;5044365;28;20211;-80
2023/11/28 08:45:12;;;;;;;12.47;8.30;;;;;;;;;;5045199;28;20221;-80
2023/11/28 08:47:39;;;;;;;11.50;8.43;;;;;;;;;;5043877;28;20200;-80
2023/11/28 08:50:07;;;;;;;9.77;8.10;;;;;;;;;;5044382;28;20205;-80
2023/11/28 08:52:34;;;;;;;7.27;6.43;;;;;;;;;;5039497;28;20202;-80
2023/11/28 08:55:01;;;;;;;7.77;5.97;;;;;;;;;;5037316;28;20203;-80
2023/11/28 08:57:33;;;;;;;7.23;6.53;;;;;;;;;;5051135;28;20213;-80
2023/11/28 09:00:00;;;;;;;27.90;16.63;;;;;;;;;;5034913;28;20633;-80
2023/11/28 09:02:28;;;;;;;17.40;11.80;;;;;;;;;;5040595;28;20206;-80
2023/11/28 09:04:55;;;;;;;16.50;10.57;;;;;;;;;;5050572;28;20210;-85
2023/11/28 09:07:22;;;;;;;23.93;14.93;;;;;;;;;;5050850;28;20216;-80
2023/11/28 09:09:49;;;;;;;25.27;13.80;;;;;;;;;;5037595;28;20206;-80
2023/11/28 09:12:17;;;;;;;10.73;8.07;;;;;;;;;;5050563;28;20209;-80
2023/11/28 09:14:45;;;;;;;9.70;7.43;;;;;;;;;;5037282;28;20208;-80
2023/11/28 09:17:11;;;;;;;9.73;7.10;;;;;;;;;;5050600;28;20611;-80
2023/11/28 09:19:39;;;;;;;7.43;6.27;;;;;;;;;;5033229;28;20229;-80
2023/11/28 09:22:07;;;;;;;8.37;6.27;;;;;;;;;;5042458;28;20210;-80
2023/11/28 09:24:33;;;;;;;7.33;6.17;;;;;;;;;;5051144;28;20288;-80
2023/11/28 09:27:00;;;;;;;9.53;6.00;;;;;;;;;;5039118;28;20217;-80
2023/11/28 09:29:27;;;;;;;8.00;7.20;;;;;;;;;;5043636;28;20692;-83
2023/11/28 09:31:55;;;;;;;10.23;7.07;;;;;;;;;;5043540;28;20202;-80
2023/11/28 09:34:22;;;;;;;13.07;7.50;;;;;;;;;;5044593;28;20260;-80
2023/11/28 09:36:50;;;;;;;7.83;7.03;;;;;;;;;;5042290;28;20300;-81
2023/11/28 09:39:19;;;;;;;10.27;8.73;;;;;;;;;;5046556;28;20214;-81
2023/11/28 09:41:46;;;;;;;14.80;9.90;;;;;;;;;;5047372;28;20202;-81
2023/11/28 09:44:15;;;;;;;16.20;14.57;;;;;;;;;;5054244;28;20204;-81
2023/11/28 09:46:44;;;;;;;84.77;65.90;;;;;;;;;;5054207;28;20665;-81
2023/11/28 09:49:12;;;;;;;27.87;23.23;;;;;;;;;;5047189;28;20203;-81
2023/11/28 09:51:40;;;;;;;7.50;6.03;;;;;;;;;;5034656;28;20214;-82
2023/11/28 09:54:11;;;;;;;10.37;7.40;;;;;;;;;;5054141;28;20267;-81
2023/11/28 09:56:38;;;;;;;7.87;7.07;;;;;;;;;;5052869;28;20225;-81
2023/11/28 09:59:09;;;;;;;6.30;5.70;;;;;;;;;;5042464;28;20214;-82
2023/11/28 10:01:38;;;;;;;8.27;6.87;;;;;;;;;;5053791;28;20213;-81
2023/11/28 10:04:05;;;;;;;10.63;8.50;;;;;;;;;;5053829;28;20210;-81
2023/11/28 10:06:32;;;;;;;7.30;6.60;;;;;;;;;;5054384;28;20271;-81
2023/11/28 10:09:00;;;;;;;14.90;12.57;;;;;;;;;;5044976;28;20245;-81
2023/11/28 10:11:29;;;;;;;14.80;13.17;;;;;;;;;;5047243;28;20260;-82
2023/11/28 10:13:56;;;;;;;14.97;13.07;;;;;;;;;;5044315;28;20198;-81
2023/11/28 10:16:41;;;;;;;17.93;16.13;;;;;;;;;;5053728;28;20229;-82
2023/11/28 10:19:09;;;;;;;14.43;12.13;;;;;;;;;;5054183;28;20628;-82
2023/11/28 10:21:36;;;;;;;17.13;13.13;;;;;;;;;;5027576;28;20205;-82
2023/11/28 10:24:04;;;;;;;8.97;8.07;;;;;;;;;;5052239;28;20213;-82
2023/11/28 10:26:32;;;;;;;8.43;7.40;;;;;;;;;;5053650;28;20209;-84
2023/11/28 10:28:59;;;;;;;9.53;8.47;;;;;;;;;;5040158;28;20214;-82
2023/11/28 10:31:26;;;;;;;17.53;13.50;;;;;;;;;;5046383;28;20209;-83
2023/11/28 10:33:53;;;;;;;22.27;15.60;;;;;;;;;;5047984;28;20194;-82
2023/11/28 10:36:20;;;;;;;19.77;13.00;;;;;;;;;;5046092;28;20309;-81
2023/11/28 10:38:47;;;;;;;22.27;14.10;;;;;;;;;;5047189;28;20234;-82
2023/11/28 10:41:15;;;;;;;15.67;11.80;;;;;;;;;;5033536;28;20223;-82
2023/11/28 10:43:45;;;;;;;12.17;10.23;;;;;;;;;;5047695;28;20210;-81
2023/11/28 10:46:14;;;;;;;11.77;8.60;;;;;;;;;;5044824;28;20213;-82
2023/11/28 10:48:41;;;;;;;12.60;9.40;;;;;;;;;;5035758;28;20256;-81
2023/11/28 10:51:10;;;;;;;12.90;10.13;;;;;;;;;;5051763;28;20202;-81
2023/11/28 10:53:38;;;;;;;12.30;9.23;;;;;;;;;;5039584;28;20242;-81
2023/11/28 10:56:06;;;;;;;11.23;10.13;;;;;;;;;;5053327;28;20225;-82
2023/11/28 10:58:34;;;;;;;16.00;12.20;;;;;;;;;;5053083;28;20201;-82
2023/11/28 11:01:03;;;;;;;14.50;12.63;;;;;;;;;;5042504;28;20214;-81
2023/11/28 11:03:32;;;;;;;6.80;6.10;;;;;;;;;;5046513;28;20692;-82
2023/11/28 11:05:59;;;;;;;4.20;3.67;;;;;;;;;;5045342;28;20297;-82
2023/11/28 11:08:27;;;;;;;5.23;4.13;;;;;;;;;;5034175;28;20214;-82
2023/11/28 11:10:54;;;;;;;64.30;43.33;;;;;;;;;;5044746;28;20210;-82
2023/11/28 11:13:35;;;;;;;13.17;10.67;;;;;;;;;;5047529;28;20207;-82
2023/11/28 11:16:11;;;;;;;12.83;9.73;;;;;;;;;;5047434;28;20233;-82
2023/11/28 11:18:41;;;;;;;8.87;7.80;;;;;;;;;;5052787;28;20543;-82
2023/11/28 11:21:14;;;;;;;16.00;11.17;;;;;;;;;;5052334;28;20253;-83
2023/11/28 11:23:40;;;;;;;7.17;6.17;;;;;;;;;;5052890;28;20665;-82
2023/11/28 11:26:08;;;;;;;8.47;7.30;;;;;;;;;;5052966;28;20756;-82
2023/11/28 11:28:35;;;;;;;6.50;5.40;;;;;;;;;;5041382;28;20203;-83
2023/11/28 11:31:14;;;;;;;6.70;6.10;;;;;;;;;;5050517;28;20217;-82
2023/11/28 11:33:40;;;;;;;5.83;4.77;;;;;;;;;;5052769;28;20205;-83
2023/11/28 11:36:13;;;;;;;6.53;5.83;;;;;;;;;;5038918;28;20229;-83
2023/11/28 11:38:40;;;;;;;6.73;5.73;;;;;;;;;;5052624;28;20739;-83
2023/11/28 11:41:10;;;;;;;6.53;5.93;;;;;;;;;;5052223;28;20661;-83
2023/11/28 11:43:40;;;;;;;7.27;6.57;;;;;;;;;;5038978;28;20214;-83
2023/11/28 11:46:10;;;;;;;6.13;5.53;;;;;;;;;;5043713;28;20777;-83
2023/11/28 11:48:38;;;;;;;6.47;5.77;;;;;;;;;;5034818;28;20246;-82
2023/11/28 11:51:05;;;;;;;6.50;5.90;;;;;;;;;;5042731;28;20202;-83
2023/11/28 11:53:33;;;;;;;7.13;6.53;;;;;;;;;;5048530;28;20198;-82
2023/11/28 11:56:01;;;;;;;11.53;9.13;;;;;;;;;;5051800;28;20257;-82
2023/11/28 11:58:29;;;;;;;7.97;7.17;;;;;;;;;;5051882;28;20711;-82
2023/11/28 12:00:57;;;;;;;13.17;11.80;;;;;;;;;;5051969;28;20218;-82
2023/11/28 12:03:24;;;;;;;10.10;9.10;;;;;;;;;;5038091;28;20201;-82
2023/11/28 12:05:52;;;;;;;9.40;7.67;;;;;;;;;;5051888;28;20216;-82
2023/11/28 12:08:19;;;;;;;8.40;7.20;;;;;;;;;;5051722;28;20578;-83
2023/11/28 12:10:46;;;;;;;9.47;8.47;;;;;;;;;;5051572;28;20244;-83
2023/11/28 12:13:15;;;;;;;22.37;17.50;;;;;;;;;;5046788;28;20207;-83
2023/11/28 12:15:42;;;;;;;20.40;15.13;;;;;;;;;;5044443;28;20600;-83
2023/11/28 12:18:10;;;;;;;12.03;10.40;;;;;;;;;;5051012;28;20221;-84
2023/11/28 12:20:37;;;;;;;9.77;8.43;;;;;;;;;;5051675;28;20216;-84
2023/11/28 12:23:07;;;;;;;8.53;7.43;;;;;;;;;;5018786;28;20218;-83
2023/11/28 12:25:35;;;;;;;12.50;9.50;;;;;;;;;;5031574;28;20274;-84
2023/11/28 12:28:03;;;;;;;11.20;8.77;;;;;;;;;;5039227;28;20299;-83
2023/11/28 12:30:32;;;;;;;57.13;31.87;;;;;;;;;;5051627;28;20216;-83
2023/11/28 12:33:00;;;;;;;16.43;12.27;;;;;;;;;;5043743;28;20650;-83
2023/11/28 12:35:28;;;;;;;10.83;9.23;;;;;;;;;;5045143;28;20213;-84
2023/11/28 12:37:57;;;;;;;11.93;9.97;;;;;;;;;;5038607;28;20237;-83
2023/11/28 12:40:25;;;;;;;8.83;7.93;;;;;;;;;;5050608;28;20201;-83
2023/11/28 12:42:53;;;;;;;7.87;7.10;;;;;;;;;;5043519;28;20215;-83
2023/11/28 12:45:20;;;;;;;5.90;5.40;;;;;;;;;;5046914;28;20267;-83
2023/11/28 12:47:47;;;;;;;6.03;5.43;;;;;;;;;;5042162;28;20214;-83
2023/11/28 12:50:15;;;;;;;14.53;10.03;;;;;;;;;;5044439;28;20677;-84
2023/11/28 12:52:43;;;;;;;11.30;9.27;;;;;;;;;;5031292;28;20206;-84
2023/11/28 12:55:11;;;;;;;12.53;10.63;;;;;;;;;;5046883;28;20296;-85
2023/11/28 12:57:39;;;;;;;10.67;9.57;;;;;;;;;;5041503;28;20230;-87
2023/11/28 13:00:07;;;;;;;9.17;8.23;;;;;;;;;;5034715;28;20206;-83
2023/11/28 13:02:34;;;;;;;17.00;10.03;;;;;;;;;;5051080;28;20206;-84
2023/11/28 13:05:01;;;;;;;18.53;8.10;;;;;;;;;;5033718;28;20773;-83
2023/11/28 13:07:27;;;;;;;15.73;8.27;;;;;;;;;;5041468;28;20737;-84
2023/11/28 13:09:59;;;;;;;10.67;6.83;;;;;;;;;;5037401;28;20731;-84
2023/11/28 13:12:26;;;;;;;7.77;7.07;;;;;;;;;;5039589;28;20210;-83
2023/11/28 13:14:54;;;;;;;27.53;10.73;;;;;;;;;;5046947;28;20242;-84
2023/11/28 13:17:22;;;;;;;30.60;8.87;;;;;;;;;;5035276;28;20226;-83
2023/11/28 13:19:49;;;;;;;29.70;7.87;;;;;;;;;;5054072;28;20658;-83
2023/11/28 13:22:18;;;;;;;29.13;8.60;;;;;;;;;;5054848;28;20661;-84
2023/11/28 13:24:46;;;;;;;50.63;10.47;;;;;;;;;;5048738;28;20289;-84
2023/11/28 13:27:12;;;;;;;24.53;7.17;;;;;;;;;;5048452;28;20251;-84
2023/11/28 13:29:41;;;;;;;68.03;11.30;;;;;;;;;;5048144;28;20195;-88
2023/11/28 13:32:12;;;;;;;33.83;9.37;;;;;;;;;;5048179;28;20212;-84
2023/11/28 13:34:42;;;;;;;110.23;15.97;;;;;;;;;;5054877;28;20202;-88
2023/11/28 13:37:12;;;;;;;53.00;11.47;;;;;;;;;;5041544;28;20697;-86
2023/11/28 13:39:42;;;;;;;59.77;11.77;;;;;;;;;;5046740;28;20206;-89
2023/11/28 13:42:11;;;;;;;37.63;9.13;;;;;;;;;;5048104;28;20214;-84
2023/11/28 13:44:38;;;;;;;36.90;9.83;;;;;;;;;;5035051;28;20252;-84
2023/11/28 13:47:06;;;;;;;27.10;8.50;;;;;;;;;;5048675;28;20202;-85
2023/11/28 13:49:34;;;;;;;10.17;5.60;;;;;;;;;;5044609;28;20673;-84
2023/11/28 13:52:02;;;;;;;21.97;9.10;;;;;;;;;;5055100;28;20209;-85
2023/11/28 13:54:29;;;;;;;41.23;9.57;;;;;;;;;;5054296;28;20288;-84
2023/11/28 13:56:56;;;;;;;18.40;8.07;;;;;;;;;;5054421;28;20308;-84
2023/11/28 13:59:23;;;;;;;16.60;6.93;;;;;;;;;;5054441;28;20202;-85
2023/11/28 14:01:50;;;;;;;48.13;11.37;;;;;;;;;;5054494;28;20201;-84
2023/11/28 14:04:16;;;;;;;76.13;12.90;;;;;;;;;;5043795;28;20221;-84
2023/11/28 14:06:45;;;;;;;40.50;11.77;;;;;;;;;;5052098;28;20213;-84
2023/11/28 14:09:14;;;;;;;13.90;9.63;;;;;;;;;;5042521;28;20218;-85
2023/11/28 14:11:40;;;;;;;8.30;7.60;;;;;;;;;;5047748;28;20295;-85
2023/11/28 14:14:07;;;;;;;7.93;7.23;;;;;;;;;;5046921;28;20221;-85
2023/11/28 14:16:34;;;;;;;10.63;9.40;;;;;;;;;;5040784;28;20589;-85
2023/11/28 14:19:01;;;;;;;10.80;9.63;;;;;;;;;;5054361;28;20213;-84
2023/11/28 14:21:28;;;;;;;12.10;10.07;;;;;;;;;;5034988;28;20205;-85
2023/11/28 14:23:56;;;;;;;14.43;11.63;;;;;;;;;;5047489;28;20209;-85
2023/11/28 14:26:23;;;;;;;13.37;11.87;;;;;;;;;;5027498;28;20217;-85
2023/11/28 14:28:50;;;;;;;17.20;12.97;;;;;;;;;;5053479;28;20213;-85
2023/11/28 14:31:19;;;;;;;12.20;10.90;;;;;;;;;;5028088;28;20221;-85
2023/11/28 14:33:46;;;;;;;16.57;11.73;;;;;;;;;;5052944;28;20209;-85
2023/11/28 14:36:13;;;;;;;12.70;10.87;;;;;;;;;;5027284;28;20713;-86